createdAt,value
2022-11-21T00:03:24.578Z,94.24
2022-11-21T00:08:26.180Z,93.91
2022-11-21T00:13:27.947Z,93.71
2022-11-21T00:18:29.529Z,93.58
2022-11-21T00:23:31.152Z,94.01
2022-11-21T00:28:33.275Z,93.88
2022-11-21T00:33:36.411Z,93.74
2022-11-21T00:38:38.258Z,93.28
2022-11-21T00:43:40.260Z,93.37
2022-11-21T00:48:42.087Z,93.43
2022-11-21T00:53:43.709Z,93.68
2022-11-21T00:58:45.309Z,93.28
2022-11-21T01:03:46.981Z,92.93
2022-11-21T01:08:48.762Z,92.51
2022-11-21T01:13:52.899Z,92.85
2022-11-21T01:18:54.586Z,93.35
2022-11-21T01:23:58.468Z,93.19
2022-11-21T01:29:00.771Z,92.79
2022-11-21T01:34:02.415Z,92.77
2022-11-21T01:39:06.046Z,93.08
2022-11-21T01:44:14.961Z,93.10
2022-11-21T01:49:30.664Z,93.10
2022-11-21T01:54:53.700Z,92.91
2022-11-21T02:00:02.815Z,93.13
2022-11-21T02:05:11.525Z,92.68
2022-11-21T02:10:15.512Z,92.88
2022-11-21T02:15:23.255Z,93.42
2022-11-21T02:20:27.425Z,92.93
2022-11-21T02:25:31.465Z,93.10
2022-11-21T02:30:36.224Z,93.88
2022-11-21T02:35:38.088Z,93.41
2022-11-21T02:40:44.148Z,93.03
2022-11-21T02:45:46.804Z,92.59
2022-11-21T02:50:48.375Z,92.75
2022-11-21T02:55:50.171Z,93.43
2022-11-21T03:00:51.814Z,93.65
2022-11-21T03:05:54.389Z,93.58
2022-11-21T03:10:55.985Z,94.20
2022-11-21T03:15:59.573Z,94.35
2022-11-21T03:21:01.208Z,95.56
2022-11-21T03:26:02.811Z,95.34
2022-11-21T03:31:04.377Z,95.10
2022-11-21T03:36:06.051Z,95.14
2022-11-21T03:41:27.843Z,94.84
2022-11-21T03:46:32.238Z,94.87
2022-11-21T03:51:34.521Z,94.58
2022-11-21T03:56:36.286Z,94.41
2022-11-21T04:01:37.982Z,94.06
2022-11-21T04:06:39.580Z,94.64
2022-11-21T04:11:41.377Z,95.13
2022-11-21T04:16:42.961Z,94.93
2022-11-21T04:21:44.553Z,94.65
2022-11-21T04:26:46.151Z,94.96
2022-11-21T04:31:47.700Z,94.95
2022-11-21T04:36:49.328Z,95.30
2022-11-21T04:41:51.195Z,95.28
2022-11-21T04:46:53.214Z,95.25
2022-11-21T04:51:54.787Z,95.51
2022-11-21T04:56:56.605Z,95.32
2022-11-21T05:01:58.182Z,95.51
2022-11-21T05:06:59.816Z,96.12
2022-11-21T05:12:21.630Z,96.03
2022-11-21T05:17:23.497Z,95.86
2022-11-21T05:22:25.279Z,95.72
2022-11-21T05:27:27.106Z,95.60
2022-11-21T05:32:28.703Z,96.51
2022-11-21T05:37:30.260Z,96.22
2022-11-21T05:42:50.172Z,95.76
2022-11-21T05:47:52.001Z,95.68
2022-11-21T05:52:53.612Z,95.61
2022-11-21T05:57:58.356Z,95.93
2022-11-21T06:03:18.296Z,96.12
2022-11-21T06:08:19.962Z,96.63
2022-11-21T06:13:22.179Z,96.20
2022-11-21T06:18:24.117Z,96.75
2022-11-21T06:23:25.777Z,96.59
2022-11-21T06:28:31.287Z,97.60
2022-11-21T06:33:33.750Z,97.34
2022-11-21T06:38:36.104Z,96.89
2022-11-21T06:43:37.726Z,96.52
2022-11-21T06:48:39.971Z,96.63
2022-11-21T06:53:41.776Z,96.29
2022-11-21T06:58:43.365Z,96.27
2022-11-21T07:03:45.003Z,96.18
2022-11-21T07:08:52.471Z,96.23
2022-11-21T07:14:07.725Z,95.79
2022-11-21T07:19:10.761Z,95.79
2022-11-21T07:24:12.554Z,95.50
2022-11-21T07:29:14.131Z,95.85
2022-11-21T07:34:15.697Z,95.75
2022-11-21T07:39:17.274Z,96.02
2022-11-21T07:44:18.823Z,96.49
2022-11-21T07:49:20.401Z,97.88
2022-11-21T07:54:22.198Z,97.49
2022-11-21T07:59:23.903Z,96.80
2022-11-21T08:04:25.841Z,96.49
2022-11-21T08:09:29.353Z,97.12
2022-11-21T08:14:31.325Z,96.52
2022-11-21T08:19:33.052Z,96.87
2022-11-21T08:24:34.631Z,96.34
2022-11-21T08:29:36.261Z,96.49
2022-11-21T08:34:38.210Z,95.98
2022-11-21T08:39:39.794Z,95.92
2022-11-21T08:44:41.363Z,95.63
2022-11-21T08:49:42.936Z,95.17
2022-11-21T08:54:45.514Z,94.81
2022-11-21T08:59:47.091Z,94.35
2022-11-21T09:04:48.665Z,94.96
2022-11-21T09:09:50.310Z,95.05
2022-11-21T09:15:10.398Z,94.65
2022-11-21T09:20:12.112Z,94.21
2022-11-21T09:25:13.756Z,93.95
2022-11-21T09:30:16.090Z,93.54
2022-11-21T09:35:17.661Z,92.71
2022-11-21T09:40:19.794Z,92.24
2022-11-21T09:45:35.111Z,91.56
2022-11-21T09:50:41.512Z,91.28
2022-11-21T09:55:59.399Z,91.91
2022-11-21T10:01:01.477Z,92.12
2022-11-21T10:06:17.812Z,92.44
2022-11-21T10:12:14.774Z,91.94
2022-11-21T10:17:26.700Z,89.05
2022-11-21T10:22:40.936Z,86.23
2022-11-21T10:28:21.913Z,84.01
2022-11-21T10:33:31.689Z,83.53
2022-11-21T10:38:43.303Z,83.33
2022-11-21T10:44:15.285Z,81.84
2022-11-21T10:49:17.099Z,83.52
2022-11-21T10:54:33.927Z,81.86
2022-11-21T10:59:35.600Z,80.30
2022-11-21T11:04:45.791Z,78.41
2022-11-21T11:09:53.442Z,79.30
2022-11-21T11:14:56.583Z,78.51
2022-11-21T11:20:33.048Z,77.80
2022-11-21T11:25:37.020Z,77.89
2022-11-21T11:30:38.707Z,78.67
2022-11-21T11:35:40.808Z,76.25
2022-11-21T11:40:44.743Z,77.25
2022-11-21T11:46:27.233Z,78.18
2022-11-21T11:51:37.186Z,75.85
2022-11-21T11:56:39.697Z,74.93
2022-11-21T12:01:48.619Z,76.13
2022-11-21T12:08:19.939Z,76.03
2022-11-21T12:12:30.868Z,76.90
2022-11-21T12:17:38.928Z,76.77
2022-11-21T12:22:40.959Z,75.90
2022-11-21T12:27:45.006Z,76.63
2022-11-21T12:32:55.733Z,76.77
2022-11-21T12:38:00.120Z,75.93
2022-11-21T12:43:23.394Z,75.88
2022-11-21T12:49:00.322Z,75.99
2022-11-21T12:54:33.266Z,75.91
2022-11-21T12:59:44.968Z,76.05
2022-11-21T13:04:49.776Z,76.73
2022-11-21T13:09:54.395Z,77.32
2022-11-21T13:15:18.214Z,77.51
2022-11-21T13:20:25.952Z,78.03
2022-11-21T13:25:30.259Z,78.40
2022-11-21T13:30:32.057Z,77.73
2022-11-21T13:35:51.876Z,77.38
2022-11-21T13:41:12.354Z,77.34
2022-11-21T13:46:52.460Z,77.18
2022-11-21T13:51:54.543Z,77.15
2022-11-21T13:57:03.482Z,77.95
2022-11-21T14:02:25.011Z,78.13
2022-11-21T14:07:32.980Z,78.50
2022-11-21T14:12:44.138Z,78.64
2022-11-21T14:17:50.043Z,78.86
2022-11-21T14:23:03.267Z,78.56
2022-11-21T14:28:09.737Z,79.00
2022-11-21T14:33:35.480Z,79.27
2022-11-21T14:39:07.670Z,79.75
2022-11-21T14:44:10.695Z,80.27
2022-11-21T14:49:20.517Z,80.31
2022-11-21T14:54:40.018Z,79.98
2022-11-21T14:59:44.030Z,80.34
2022-11-21T15:04:48.162Z,80.41
2022-11-21T15:10:27.320Z,80.56
2022-11-21T15:15:23.482Z,81.10
2022-11-21T15:20:26.505Z,81.44
2022-11-21T15:25:30.503Z,81.24
2022-11-21T15:30:33.977Z,81.57
2022-11-21T15:35:35.649Z,81.69
2022-11-21T15:40:37.272Z,81.77
2022-11-21T15:45:38.933Z,81.88
2022-11-21T15:50:40.685Z,82.00
2022-11-21T15:55:42.291Z,82.21
2022-11-21T16:00:43.931Z,82.51
2022-11-21T16:05:45.567Z,82.33
2022-11-21T16:10:47.265Z,82.57
2022-11-21T16:15:48.917Z,82.46
2022-11-21T16:20:50.835Z,82.80
2022-11-21T16:25:54.217Z,83.05
2022-11-21T16:30:58.310Z,82.77
2022-11-21T16:36:00.427Z,83.19
2022-11-21T16:41:05.283Z,84.19
2022-11-21T16:46:09.383Z,84.18
2022-11-21T16:51:20.992Z,84.51
2022-11-21T16:56:22.625Z,84.35
2022-11-21T17:01:26.251Z,84.86
2022-11-21T17:06:30.380Z,84.88
2022-11-21T17:11:32.197Z,84.96
2022-11-21T17:16:34.853Z,85.20
2022-11-21T17:21:36.769Z,85.25
2022-11-21T17:26:38.491Z,85.51
2022-11-21T17:31:41.921Z,85.20
2022-11-21T17:36:43.686Z,85.26
2022-11-21T17:41:45.339Z,85.37
2022-11-21T17:46:47.058Z,85.10
2022-11-21T17:51:52.459Z,84.78
2022-11-21T17:56:57.311Z,84.81
2022-11-21T18:01:59.128Z,85.02
2022-11-21T18:07:00.924Z,85.19
2022-11-21T18:12:02.579Z,85.62
2022-11-21T18:17:04.215Z,85.54
2022-11-21T18:22:05.896Z,85.94
2022-11-21T18:27:09.350Z,86.65
2022-11-21T18:32:10.942Z,87.42
2022-11-21T18:37:12.741Z,87.73
2022-11-21T18:42:14.296Z,87.79
2022-11-21T18:47:20.793Z,88.39
2022-11-21T18:52:22.726Z,88.28
2022-11-21T18:57:24.533Z,88.29
2022-11-21T19:02:26.575Z,88.97
2022-11-21T19:07:28.324Z,89.24
2022-11-21T19:12:33.811Z,89.39
2022-11-21T19:17:37.919Z,89.69
2022-11-21T19:22:39.496Z,89.34
2022-11-21T19:27:41.063Z,89.37
2022-11-21T19:32:42.696Z,89.27
2022-11-21T19:37:44.854Z,89.83
2022-11-21T19:42:46.461Z,89.25
2022-11-21T19:47:49.011Z,88.67
2022-11-21T19:52:50.645Z,88.60
2022-11-21T19:57:52.225Z,91.42
2022-11-21T20:02:54.036Z,89.82
2022-11-21T20:08:01.666Z,89.50
2022-11-21T20:13:05.438Z,89.00
2022-11-21T20:18:08.324Z,89.04
2022-11-21T20:23:10.110Z,88.97
2022-11-21T20:28:11.985Z,91.84
2022-11-21T20:33:13.604Z,95.84
2022-11-21T20:38:17.903Z,95.52
2022-11-21T20:43:23.158Z,93.22
2022-11-21T20:48:24.952Z,91.91
2022-11-21T20:53:51.592Z,91.13
2022-11-21T20:58:52.383Z,90.77
2022-11-21T21:03:54.529Z,90.76
2022-11-21T21:08:56.108Z,90.38
2022-11-21T21:13:57.885Z,90.02
2022-11-21T21:18:59.980Z,90.41
2022-11-21T21:24:08.285Z,90.58
2022-11-21T21:29:12.246Z,91.46
2022-11-21T21:34:14.278Z,91.57
2022-11-21T21:39:15.990Z,92.61
2022-11-21T21:44:17.560Z,96.02
2022-11-21T21:49:19.284Z,97.91
2022-11-21T21:54:22.307Z,99.03
2022-11-21T21:59:23.972Z,99.62
2022-11-21T22:04:25.925Z,100.00
2022-11-21T22:09:27.716Z,100.00
2022-11-21T22:14:29.849Z,99.80
2022-11-21T22:19:31.757Z,100.00
2022-11-21T22:24:33.452Z,100.00
2022-11-21T22:29:35.023Z,100.00
2022-11-21T22:34:36.766Z,100.00
2022-11-21T22:39:38.601Z,100.00
2022-11-21T22:44:40.201Z,100.00
2022-11-21T22:49:41.841Z,100.00
2022-11-21T22:54:43.661Z,100.00
2022-11-21T22:59:45.240Z,100.00
2022-11-21T23:04:46.830Z,100.00
2022-11-21T23:09:48.421Z,100.00
2022-11-21T23:14:50.145Z,100.00
2022-11-21T23:19:51.905Z,100.00
2022-11-21T23:24:53.504Z,100.00
2022-11-21T23:29:55.249Z,100.00
2022-11-21T23:34:56.865Z,100.00
2022-11-21T23:39:58.429Z,100.00
2022-11-21T23:45:00.229Z,100.00
2022-11-21T23:50:01.834Z,100.00
2022-11-21T23:55:03.669Z,100.00
